Time;durP1;ratioP1;P1;durP2;ratioP2;P2;SDS_P1;SDS_P2;PMS_P1;PMS_P2;Temp;Humidity;BMP_temperature;BMP_pressure;BME280_temperature;BME280_humidity;BME280_pressure;Samples;Min_cycle;Max_cycle;Signal;HPM_P1;HPM_P2
2023/09/26 00:03:36;;;;;;;2.95;2.47;;;;;;;17.51;62.17;100794.41;10344774;28;20464;-65
2023/09/26 00:08:37;;;;;;;3.90;2.45;;;;;;;17.41;62.37;100782.88;10347870;28;20065;-67
2023/09/26 00:13:39;;;;;;;2.63;2.15;;;;;;;17.28;62.62;100767.97;10348975;28;20073;-67
2023/09/26 00:18:42;;;;;;;3.08;2.42;;;;;;;17.38;62.66;100796.63;10345930;28;20174;-66
2023/09/26 00:23:43;;;;;;;2.90;2.57;;;;;;;17.26;62.79;100772.69;10342999;28;20061;-67
2023/09/26 00:28:45;;;;;;;2.55;2.33;;;;;;;17.33;63.08;100789.03;10344093;28;20197;-67
2023/09/26 00:33:46;;;;;;;3.80;2.58;;;;;;;17.22;63.18;100781.19;10346534;28;20884;-68
2023/09/26 00:38:48;;;;;;;3.25;2.22;;;;;;;17.21;62.89;100788.41;10348326;28;20121;-69
2023/09/26 00:43:50;;;;;;;3.85;2.58;;;;;;;17.18;63.23;100798.66;10352061;28;20048;-65
2023/09/26 00:48:52;;;;;;;3.03;2.33;;;;;;;17.10;63.49;100785.97;10340164;28;20129;-68
2023/09/26 00:53:55;;;;;;;3.00;2.70;;;;;;;17.03;63.52;100787.56;10341504;28;20069;-67
2023/09/26 00:58:58;;;;;;;3.33;2.70;;;;;;;16.99;63.32;100778.13;10349517;28;20541;-68
2023/09/26 01:04:00;;;;;;;3.43;2.60;;;;;;;16.98;63.97;100781.78;10344268;28;20141;-67
2023/09/26 01:09:05;;;;;;;3.17;2.72;;;;;;;16.98;64.00;100781.78;10337123;28;20065;-66
2023/09/26 01:14:07;;;;;;;3.42;2.42;;;;;;;16.75;63.97;100760.69;10342115;28;20049;-65
2023/09/26 01:19:08;;;;;;;3.20;2.50;;;;;;;16.92;64.07;100784.09;10341038;28;20066;-65
2023/09/26 01:24:10;;;;;;;3.25;2.67;;;;;;;16.88;64.26;100782.72;10343721;28;20180;-65
2023/09/26 01:29:11;;;;;;;3.90;2.60;;;;;;;16.87;64.39;100789.06;10344619;28;20068;-67
2023/09/26 01:34:13;;;;;;;2.92;2.72;;;;;;;16.73;64.87;100774.28;10340840;28;20045;-65
2023/09/26 01:39:14;;;;;;;3.08;2.67;;;;;;;16.76;64.45;100773.16;10326001;28;20591;-68
2023/09/26 01:44:16;;;;;;;2.75;2.55;;;;;;;16.71;64.56;100775.41;10343178;28;20190;-66
2023/09/26 01:49:17;;;;;;;4.00;2.75;;;;;;;16.66;65.00;100773.19;10339429;28;20049;-66
2023/09/26 01:54:18;;;;;;;3.85;3.45;;;;;;;16.64;64.96;100772.50;10339880;28;20049;-67
2023/09/26 01:59:20;;;;;;;3.67;3.40;;;;;;;16.53;65.27;100770.88;10344498;28;20061;-67
2023/09/26 02:04:21;;;;;;;4.25;3.85;;;;;;;16.57;64.93;100769.59;10326157;28;20062;-67
2023/09/26 02:09:24;;;;;;;5.05;3.28;;;;;;;16.50;65.24;100771.19;10342995;28;20080;-66
2023/09/26 02:14:25;;;;;;;3.58;3.00;;;;;;;16.48;64.79;100758.88;10340455;28;20906;-66
2023/09/26 02:19:27;;;;;;;4.00;3.20;;;;;;;16.44;64.83;100766.41;10340792;28;20049;-67
2023/09/26 02:24:28;;;;;;;3.80;3.05;;;;;;;16.40;65.86;100773.91;10340834;28;20049;-67
2023/09/26 02:29:30;;;;;;;3.83;3.25;;;;;;;16.35;66.34;100772.66;10327291;28;20050;-66
2023/09/26 02:34:31;;;;;;;3.78;3.47;;;;;;;16.37;66.03;100768.00;10336058;28;20076;-66
2023/09/26 02:39:32;;;;;;;3.85;2.83;;;;;;;16.30;66.09;100756.13;10337318;28;20050;-66
2023/09/26 02:44:34;;;;;;;3.83;3.42;;;;;;;16.30;65.25;100754.28;10297910;28;20599;-67
2023/09/26 02:49:35;;;;;;;3.40;3.10;;;;;;;16.22;65.69;100738.91;10299501;28;20058;-67
2023/09/26 02:54:37;;;;;;;4.45;3.75;;;;;;;16.08;66.13;100726.00;10301572;28;20127;-68
2023/09/26 02:59:38;;;;;;;3.20;2.90;;;;;;;16.17;66.20;100738.53;10298565;28;20085;-66
2023/09/26 03:04:39;;;;;;;4.40;3.38;;;;;;;16.12;66.35;100732.75;10299891;28;20049;-67
2023/09/26 03:09:41;;;;;;;3.70;3.38;;;;;;;16.08;66.19;100731.38;10300632;28;20078;-68
2023/09/26 03:14:43;;;;;;;3.70;3.40;;;;;;;16.08;66.57;100734.06;10300390;28;20216;-67
2023/09/26 03:19:44;;;;;;;8.07;3.42;;;;;;;15.99;66.08;100719.66;10301699;28;20465;-66
2023/09/26 03:24:46;;;;;;;4.35;3.30;;;;;;;16.03;66.08;100729.13;10302018;28;20057;-65
2023/09/26 03:29:49;;;;;;;3.88;3.55;;;;;;;15.99;66.46;100725.03;10302536;28;20105;-67
2023/09/26 03:34:51;;;;;;;4.95;2.97;;;;;;;15.96;66.50;100728.03;10308733;28;20101;-67
2023/09/26 03:39:52;;;;;;;4.82;3.33;;;;;;;15.93;66.70;100733.69;10306806;28;20133;-66
2023/09/26 03:44:54;;;;;;;4.22;3.90;;;;;;;15.90;66.69;100729.44;10308948;28;20050;-66
2023/09/26 03:49:55;;;;;;;4.13;3.75;;;;;;;15.88;67.01;100733.25;10302113;28;20065;-67
2023/09/26 03:54:56;;;;;;;3.80;3.50;;;;;;;15.81;67.13;100730.31;10301711;28;20080;-67
2023/09/26 03:59:58;;;;;;;3.70;3.40;;;;;;;15.81;66.85;100741.06;10307064;28;20135;-66
2023/09/26 04:05:00;;;;;;;5.63;3.75;;;;;;;15.77;66.78;100734.25;10304943;28;20540;-67
2023/09/26 04:10:01;;;;;;;5.00;4.00;;;;;;;15.73;66.53;100725.66;10297143;28;20053;-68
2023/09/26 04:15:03;;;;;;;3.78;3.47;;;;;;;15.71;66.68;100732.16;10299912;28;20042;-67
2023/09/26 04:20:12;;;;;;;4.95;3.78;;;;;;;15.65;67.00;100730.06;10306831;28;20704;-66
2023/09/26 04:25:34;;;;;;;4.75;4.13;;;;;;;15.66;67.33;100729.91;10294671;28;20185;-65
2023/09/26 04:30:38;;;;;;;8.13;5.22;;;;;;;15.45;67.47;100695.22;10308176;28;20197;-65
2023/09/26 04:35:39;;;;;;;4.82;3.50;;;;;;;15.56;67.92;100719.19;10311517;28;20057;-65
2023/09/26 04:40:41;;;;;;;6.03;4.15;;;;;;;15.55;67.97;100730.06;10307653;28;20064;-66
2023/09/26 04:45:42;;;;;;;4.88;4.35;;;;;;;15.54;67.75;100726.53;10310975;28;20137;-67
2023/09/26 04:50:44;;;;;;;4.63;4.22;;;;;;;15.43;67.62;100715.97;10318049;28;20176;-68
2023/09/26 04:55:45;;;;;;;4.72;4.25;;;;;;;15.48;68.17;100720.91;10336002;28;20228;-68
2023/09/26 05:00:47;;;;;;;4.53;3.85;;;;;;;15.43;67.81;100732.06;10306824;28;20158;-65
2023/09/26 05:05:48;;;;;;;4.78;4.30;;;;;;;15.35;67.53;100723.91;10303823;28;20194;-66
2023/09/26 05:10:50;;;;;;;4.85;4.40;;;;;;;15.35;67.55;100734.63;10297058;28;20046;-67
2023/09/26 05:15:51;;;;;;;5.22;4.70;;;;;;;15.34;68.10;100739.16;10310310;28;20143;-67
2023/09/26 05:20:53;;;;;;;5.15;4.32;;;;;;;15.30;68.00;100739.59;10299024;28;20485;-66
2023/09/26 05:25:54;;;;;;;5.75;4.38;;;;;;;15.17;67.94;100721.91;10305188;28;20235;-66
2023/09/26 05:30:56;;;;;;;4.80;4.40;;;;;;;15.27;68.14;100739.88;10306620;28;20073;-67
2023/09/26 05:35:57;;;;;;;5.18;4.65;;;;;;;15.24;68.15;100746.34;10298733;28;23045;-65
2023/09/26 05:40:59;;;;;;;5.57;4.47;;;;;;;15.24;68.20;100745.47;10301428;28;21322;-66
2023/09/26 05:46:03;;;;;;;4.28;3.88;;;;;;;15.13;68.67;100722.34;10304335;28;20376;-65
2023/09/26 05:51:04;;;;;;;;;;;;;;;15.27;68.96;100745.22;10301018;28;20064;-65
2023/09/26 05:56:07;;;;;;;4.82;4.32;;;;;;;15.27;68.04;100732.66;10298982;28;20108;-65
2023/09/26 06:01:09;;;;;;;5.38;4.30;;;;;;;15.33;68.24;100747.34;10300470;28;20134;-64
2023/09/26 06:06:11;;;;;;;7.25;4.40;;;;;;;15.38;68.89;100747.75;10297722;28;20061;-63
2023/09/26 06:11:14;;;;;;;4.60;4.20;;;;;;;15.51;67.84;100756.34;10301356;28;20197;-66
2023/09/26 06:16:16;;;;;;;4.50;4.10;;;;;;;15.65;68.31;100754.22;10313297;28;20057;-66
2023/09/26 06:21:19;;;;;;;6.25;4.03;;;;;;;15.80;68.06;100757.31;10295897;28;20049;-66
2023/09/26 06:26:21;;;;;;;4.20;3.88;;;;;;;15.95;67.47;100761.22;10289995;28;20046;-64
2023/09/26 06:31:22;;;;;;;4.72;3.85;;;;;;;16.06;67.10;100757.50;10295898;28;20053;-65
2023/09/26 06:36:25;;;;;;;4.45;4.05;;;;;;;16.11;67.09;100751.69;10312718;28;20068;-64
2023/09/26 06:41:26;;;;;;;6.38;4.20;;;;;;;16.25;66.58;100760.09;10299818;28;20046;-66
2023/09/26 06:46:28;;;;;;;4.82;3.47;;;;;;;16.33;66.54;100748.63;10296845;28;20177;-65
2023/09/26 06:51:30;;;;;;;5.07;4.18;;;;;;;16.42;66.02;100739.69;10306081;28;20528;-64
2023/09/26 06:56:31;;;;;;;4.40;4.00;;;;;;;16.56;65.58;100735.63;10299680;28;20069;-66
2023/09/26 07:01:33;;;;;;;4.65;3.65;;;;;;;16.76;64.88;100751.63;10299587;28;20453;-67
2023/09/26 07:06:34;;;;;;;4.10;3.70;;;;;;;16.85;64.27;100739.97;10299737;28;21248;-65
2023/09/26 07:11:36;;;;;;;3.67;3.20;;;;;;;17.05;64.24;100750.59;10304897;28;20050;-65
2023/09/26 07:16:37;;;;;;;3.45;3.13;;;;;;;17.14;64.01;100749.69;10303344;28;20551;-65
2023/09/26 07:21:39;;;;;;;3.33;2.90;;;;;;;17.09;63.28;100742.06;10299047;28;20056;-66
2023/09/26 07:26:40;;;;;;;3.15;2.67;;;;;;;17.28;63.67;100756.38;10301229;28;20664;-66
2023/09/26 07:31:42;;;;;;;4.53;4.13;;;;;;;17.49;63.16;100764.13;10302990;28;20576;-67
2023/09/26 07:36:44;;;;;;;4.40;3.08;;;;;;;17.62;62.59;100761.84;10324751;28;20049;-66
2023/09/26 07:41:45;;;;;;;3.20;2.80;;;;;;;17.77;63.24;100747.81;10317413;28;20058;-65
2023/09/26 07:46:47;;;;;;;3.35;2.88;;;;;;;17.98;61.57;100755.53;10309381;28;20083;-65
2023/09/26 07:51:49;;;;;;;4.18;3.42;;;;;;;18.09;60.84;100749.88;10308914;28;20062;-65
2023/09/26 07:56:50;;;;;;;2.70;2.50;;;;;;;18.07;60.78;100753.75;10309196;28;20053;-66
2023/09/26 08:01:52;;;;;;;4.45;3.80;;;;;;;17.97;60.68;100761.91;10305835;28;20458;-66
2023/09/26 08:06:53;;;;;;;3.05;2.75;;;;;;;18.12;60.80;100743.31;10347696;28;20136;-65
2023/09/26 08:11:55;;;;;;;3.65;3.05;;;;;;;18.38;60.37;100744.09;10344043;28;20464;-65
2023/09/26 08:16:56;;;;;;;2.97;2.75;;;;;;;18.54;59.30;100753.28;10328407;28;20084;-66
2023/09/26 08:21:57;;;;;;;4.93;3.38;;;;;;;18.48;59.31;100740.44;10343059;28;20065;-65
2023/09/26 08:26:59;;;;;;;5.20;3.25;;;;;;;18.75;59.32;100742.06;10342216;28;20132;-67
2023/09/26 08:32:00;;;;;;;5.35;3.13;;;;;;;19.03;58.42;100739.06;10328955;28;20057;-67
2023/09/26 08:37:02;;;;;;;3.65;2.67;;;;;;;19.03;58.62;100731.81;10343296;28;20135;-66
2023/09/26 08:42:04;;;;;;;3.75;3.40;;;;;;;19.19;58.50;100724.75;10345730;28;20072;-66
2023/09/26 08:47:05;;;;;;;3.95;3.10;;;;;;;19.37;58.50;100724.59;10302513;28;20050;-66
2023/09/26 08:52:07;;;;;;;4.72;2.95;;;;;;;19.64;57.06;100730.63;10304785;28;20049;-66
2023/09/26 08:57:10;;;;;;;4.03;3.25;;;;;;;19.89;56.50;100729.59;10308408;28;20058;-67
2023/09/26 09:02:12;;;;;;;3.92;3.20;;;;;;;20.10;55.93;100745.25;10310742;28;20639;-68
2023/09/26 09:07:14;;;;;;;5.68;3.50;;;;;;;20.31;55.48;100741.94;10304933;28;20400;-65
2023/09/26 09:12:24;;;;;;;4.53;3.00;;;;;;;20.42;55.00;100710.97;10299794;28;20053;-66
2023/09/26 09:17:25;;;;;;;3.60;3.30;;;;;;;20.76;54.92;100717.91;10303640;28;20235;-67
2023/09/26 09:22:27;;;;;;;2.85;2.45;;;;;;;20.95;54.01;100721.16;10344873;28;20057;-67
2023/09/26 09:27:34;;;;;;;3.92;2.95;;;;;;;21.27;54.12;100708.38;10300804;28;20433;-66
2023/09/26 09:32:35;;;;;;;3.40;2.97;;;;;;;21.46;53.15;100707.88;10314282;28;20524;-69
2023/09/26 09:37:37;;;;;;;3.85;2.67;;;;;;;21.65;52.39;100701.13;10307530;28;20733;-66
2023/09/26 09:42:40;;;;;;;4.97;2.70;;;;;;;21.98;51.79;100694.47;10305797;28;20060;-66
2023/09/26 09:47:44;;;;;;;3.28;2.97;;;;;;;22.32;51.71;100701.19;10336063;28;20107;-67
2023/09/26 09:52:51;;;;;;;4.90;2.55;;;;;;;22.52;51.11;100686.00;10337919;28;20051;-66
2023/09/26 09:57:55;;;;;;;4.78;2.42;;;;;;;22.73;50.55;100677.03;10349237;28;20117;-66
2023/09/26 10:03:03;;;;;;;4.05;2.50;;;;;;;23.18;49.17;100681.44;10355021;28;20239;-67
2023/09/26 10:08:07;;;;;;;3.38;2.28;;;;;;;23.49;47.99;100691.91;10350234;28;20124;-68
2023/09/26 10:13:09;;;;;;;;;;;;;;;23.57;47.01;100683.63;10358922;28;20053;-65
2023/09/26 10:18:33;;;;;;;5.20;3.00;;;;;;;23.62;48.27;100673.00;10398596;28;19964;-65
2023/09/26 10:23:34;;;;;;;2.65;2.15;;;;;;;23.86;47.92;100662.72;10402603;28;20096;-67
2023/09/26 10:28:37;;;;;;;4.05;2.47;;;;;;;24.11;47.95;100660.31;10351181;28;20199;-67
2023/09/26 10:33:53;;;;;;;2.97;2.30;;;;;;;24.61;46.07;100675.56;10367232;28;20169;-67
2023/09/26 10:38:59;;;;;;;4.45;2.58;;;;;;;24.84;45.55;100651.50;10362967;28;20049;-66
2023/09/26 10:44:04;;;;;;;4.80;2.30;;;;;;;25.09;45.33;100653.63;10368138;28;20041;-67
2023/09/26 10:49:08;;;;;;;3.33;2.47;;;;;;;25.33;46.17;100649.44;10353226;28;20053;-66
2023/09/26 10:54:10;;;;;;;3.35;2.40;;;;;;;25.64;44.05;100637.03;10349431;28;20057;-64
2023/09/26 10:59:11;;;;;;;4.63;2.83;;;;;;;25.71;45.06;100639.72;10363129;28;20131;-67
2023/09/26 11:04:13;;;;;;;4.22;2.80;;;;;;;25.88;44.63;100640.94;10371469;28;20192;-67
2023/09/26 11:09:15;;;;;;;3.28;2.08;;;;;;;26.31;43.71;100631.31;10346363;28;20052;-67
2023/09/26 11:14:17;;;;;;;3.13;2.63;;;;;;;26.79;42.72;100630.81;10347449;28;20055;-67
2023/09/26 11:19:22;;;;;;;3.35;2.25;;;;;;;27.01;41.37;100616.78;10359250;28;20057;-66
2023/09/26 11:24:32;;;;;;;3.80;1.98;;;;;;;27.49;40.77;100629.81;10356533;28;20104;-67
2023/09/26 11:29:35;;;;;;;1.42;1.10;;;;;;;27.68;40.39;100603.31;10339478;28;20056;-67
2023/09/26 11:34:37;;;;;;;;;;;;;;;28.04;38.80;100612.56;10356412;28;21005;-66
2023/09/26 11:39:39;;;;;;;3.08;1.77;;;;;;;28.31;39.28;100614.09;10333188;28;19937;-66
2023/09/26 11:44:51;;;;;;;2.58;1.77;;;;;;;28.80;38.27;100612.13;10363261;28;20673;-67
2023/09/26 11:49:52;;;;;;;2.00;1.60;;;;;;;29.35;38.11;100600.00;10336547;28;20072;-68
2023/09/26 11:54:54;;;;;;;6.10;1.83;;;;;;;29.64;36.54;100607.47;10347995;28;20076;-67
2023/09/26 11:59:56;;;;;;;;;;;;;;;30.04;35.72;100603.91;10361409;28;20057;-65
2023/09/26 12:04:57;;;;;;;2.40;1.75;;;;;;;30.56;35.90;100587.34;10352106;28;20026;-68
2023/09/26 12:09:59;;;;;;;3.38;2.13;;;;;;;31.12;34.57;100583.84;10355467;28;20052;-67
2023/09/26 12:15:20;;;;;;;4.05;1.60;;;;;;;31.72;34.23;100591.28;10341726;28;20111;-64
2023/09/26 12:20:24;;;;;;;2.67;1.30;;;;;;;32.25;32.78;100572.34;10358752;28;20081;-69
2023/09/26 12:25:30;;;;;;;1.70;1.40;;;;;;;33.87;30.53;100567.63;10353325;28;20056;-65
2023/09/26 12:30:33;;;;;;;1.98;1.33;;;;;;;35.17;28.85;100572.97;10341411;28;20049;-66
2023/09/26 12:35:34;;;;;;;3.28;1.52;;;;;;;35.18;27.11;100564.38;10350975;28;20061;-66
2023/09/26 12:40:36;;;;;;;2.90;1.70;;;;;;;34.24;28.99;100561.09;10358068;28;20183;-66
2023/09/26 12:45:37;;;;;;;;;;;;;;;34.04;28.86;100559.13;10341318;28;20063;-65
2023/09/26 12:50:39;;;;;;;4.55;1.33;;;;;;;34.08;29.75;100541.75;10357456;28;20083;-66
2023/09/26 12:55:40;;;;;;;;;;;;;;;33.74;29.45;100544.97;10361027;28;20057;-66
2023/09/26 13:00:42;;;;;;;;;;;;;;;33.95;28.90;100542.28;10362971;28;20026;-66
2023/09/26 13:05:44;;;;;;;4.25;1.00;;;;;;;34.34;29.69;100523.28;10390576;28;19964;-67
2023/09/26 13:10:45;;;;;;;2.53;1.30;;;;;;;34.67;28.39;100521.03;10428143;28;20049;-70
2023/09/26 13:15:47;;;;;;;3.10;1.15;;;;;;;34.91;28.52;100519.66;10374620;28;20072;-68
2023/09/26 13:20:48;;;;;;;2.45;1.27;;;;;;;35.11;27.36;100516.00;10358133;28;20423;-67
2023/09/26 13:25:50;;;;;;;1.30;1.20;;;;;;;35.42;26.61;100522.28;10361518;28;20061;-68
2023/09/26 13:30:51;;;;;;;3.17;1.13;;;;;;;35.75;26.24;100517.13;10362890;28;20061;-67
2023/09/26 13:35:53;;;;;;;2.15;1.00;;;;;;;36.82;25.00;100509.13;10365730;28;20119;-68
2023/09/26 13:40:54;;;;;;;4.03;2.17;;;;;;;36.08;25.84;100507.22;10357682;28;20063;-67
2023/09/26 13:45:56;;;;;;;3.33;1.30;;;;;;;37.53;24.90;100508.56;10357572;28;20050;-64
2023/09/26 13:50:57;;;;;;;2.38;1.35;;;;;;;37.33;24.81;100514.09;10351584;28;20069;-65
2023/09/26 13:55:58;;;;;;;3.03;0.90;;;;;;;34.41;27.23;100519.41;10350575;28;20068;-64
2023/09/26 14:01:02;;;;;;;2.00;1.10;;;;;;;33.05;29.89;100508.22;10334842;28;20492;-65
2023/09/26 14:06:03;;;;;;;1.48;1.13;;;;;;;32.56;30.08;100506.53;10347102;28;20571;-66
2023/09/26 14:11:05;;;;;;;1.77;0.93;;;;;;;31.82;30.49;100508.00;10352380;28;20183;-66
2023/09/26 14:16:07;;;;;;;1.55;0.90;;;;;;;30.95;32.33;100504.13;10349014;28;20103;-65
2023/09/26 14:21:13;;;;;;;;;;;;;;;30.47;34.30;100498.19;10343790;28;20127;-66
2023/09/26 14:26:15;;;;;;;1.63;1.40;;;;;;;30.03;34.50;100485.09;10351067;28;19933;-64
2023/09/26 14:31:19;;;;;;;2.08;1.17;;;;;;;29.68;34.93;100485.22;10347473;28;20060;-64
2023/09/26 14:36:20;;;;;;;2.97;1.40;;;;;;;29.24;36.24;100478.31;10349906;28;20050;-64
2023/09/26 14:41:22;;;;;;;1.47;1.37;;;;;;;29.05;35.98;100490.47;10352206;28;20496;-65
2023/09/26 14:46:23;;;;;;;3.55;1.58;;;;;;;28.69;35.71;100493.25;10329915;28;20148;-68
2023/09/26 14:51:25;;;;;;;1.53;1.40;;;;;;;28.29;37.24;100485.69;10348116;28;20049;-64
2023/09/26 14:56:28;;;;;;;2.35;1.40;;;;;;;27.98;36.97;100492.28;10347368;28;20053;-65
2023/09/26 15:01:30;;;;;;;1.50;1.38;;;;;;;27.75;38.10;100501.22;10330349;28;20080;-65
2023/09/26 15:06:31;;;;;;;1.50;1.40;;;;;;;27.57;38.66;100493.88;10346029;28;20158;-65
2023/09/26 15:11:33;;;;;;;2.27;1.37;;;;;;;27.25;39.02;100492.13;10345766;28;20057;-63
2023/09/26 15:16:35;;;;;;;2.88;1.23;;;;;;;27.03;38.04;100502.66;10330437;28;20062;-64
2023/09/26 15:21:38;;;;;;;1.35;1.25;;;;;;;26.83;38.39;100496.56;10341117;28;20053;-65
2023/09/26 15:26:39;;;;;;;2.83;1.67;;;;;;;26.69;38.85;100493.13;10349446;28;20056;-64
2023/09/26 15:31:41;;;;;;;3.03;1.35;;;;;;;26.46;38.81;100478.19;10350134;28;20053;-66
2023/09/26 15:36:42;;;;;;;3.45;1.42;;;;;;;26.32;39.13;100488.41;10356183;28;20065;-66
2023/09/26 15:41:44;;;;;;;3.63;1.45;;;;;;;26.17;39.97;100501.53;10356587;28;20057;-66
2023/09/26 15:46:45;;;;;;;1.20;1.10;;;;;;;26.01;40.14;100476.44;10350803;28;22929;-64
2023/09/26 15:51:46;;;;;;;1.90;1.30;;;;;;;26.00;41.25;100482.97;10321341;28;20065;-65
2023/09/26 15:56:48;;;;;;;2.45;1.33;;;;;;;25.95;42.05;100493.66;10327890;28;20056;-66
2023/09/26 16:01:49;;;;;;;2.88;1.55;;;;;;;25.85;41.92;100485.97;10354326;28;20067;-65
2023/09/26 16:06:51;;;;;;;2.47;1.52;;;;;;;25.71;42.12;100485.19;10336486;28;20179;-65
2023/09/26 16:11:53;;;;;;;1.65;1.20;;;;;;;25.59;42.81;100484.19;10353160;28;20127;-65
2023/09/26 16:16:54;;;;;;;2.60;1.88;;;;;;;25.44;42.52;100486.38;10334976;28;20056;-67
2023/09/26 16:21:56;;;;;;;3.77;1.30;;;;;;;25.36;43.29;100485.56;10332476;28;20073;-66
2023/09/26 16:26:58;;;;;;;1.65;1.20;;;;;;;25.11;43.12;100492.75;10346880;28;20962;-65
2023/09/26 16:32:00;;;;;;;1.50;1.10;;;;;;;24.90;44.48;100486.50;10326073;28;20063;-64
2023/09/26 16:37:01;;;;;;;1.98;1.40;;;;;;;24.92;44.70;100495.31;10347475;28;20431;-64
2023/09/26 16:42:03;;;;;;;1.92;1.23;;;;;;;24.95;45.60;100507.63;10353890;28;20463;-65
2023/09/26 16:47:04;;;;;;;2.42;1.38;;;;;;;24.90;46.31;100502.81;10334699;28;20053;-66
2023/09/26 16:52:06;;;;;;;1.40;1.10;;;;;;;24.82;46.58;100494.91;10348894;28;20176;-65
2023/09/26 16:57:08;;;;;;;2.70;1.50;;;;;;;24.74;47.12;100508.72;10350429;28;20084;-66
2023/09/26 17:02:10;;;;;;;3.35;1.67;;;;;;;24.56;47.19;100495.72;10348522;28;20064;-66
2023/09/26 17:07:11;;;;;;;3.08;2.00;;;;;;;24.46;46.44;100502.41;10347048;28;20800;-67
2023/09/26 17:12:15;;;;;;;6.70;3.25;;;;;;;24.34;48.07;100510.34;10358210;28;20867;-67
2023/09/26 17:17:16;;;;;;;4.85;2.80;;;;;;;24.27;49.07;100514.94;10353601;28;20049;-66
2023/09/26 17:22:18;;;;;;;3.30;2.63;;;;;;;24.16;49.20;100512.84;10355376;28;20054;-65
2023/09/26 17:27:19;;;;;;;3.55;2.47;;;;;;;24.08;49.54;100521.19;10348430;28;21095;-64
2023/09/26 17:32:20;;;;;;;3.45;3.00;;;;;;;23.94;49.97;100523.06;10346497;28;20053;-66
2023/09/26 17:37:22;;;;;;;3.72;2.90;;;;;;;23.88;50.27;100521.16;10349212;28;20399;-65
2023/09/26 17:42:24;;;;;;;3.53;2.95;;;;;;;23.79;50.75;100529.44;10347204;28;20046;-66
2023/09/26 17:47:28;;;;;;;5.03;3.55;;;;;;;23.64;51.68;100532.34;10351530;28;20076;-65
2023/09/26 17:52:30;;;;;;;4.22;3.58;;;;;;;23.58;52.02;100544.00;10346378;28;20077;-65
2023/09/26 17:57:31;;;;;;;4.82;3.88;;;;;;;23.44;51.65;100528.69;10345997;28;20041;-68
2023/09/26 18:02:33;;;;;;;4.20;3.58;;;;;;;23.32;52.37;100523.00;10348011;28;20056;-68
2023/09/26 18:07:34;;;;;;;4.88;4.47;;;;;;;23.26;52.58;100540.94;10335482;28;20500;-68
2023/09/26 18:12:36;;;;;;;6.05;4.40;;;;;;;23.11;52.78;100532.06;10347051;28;20049;-67
2023/09/26 18:17:37;;;;;;;7.75;4.70;;;;;;;23.07;52.58;100547.88;10331110;28;20061;-68
2023/09/26 18:22:39;;;;;;;5.38;4.53;;;;;;;23.02;52.59;100554.94;10345828;28;20057;-67
2023/09/26 18:27:41;;;;;;;11.02;7.55;;;;;;;22.93;52.74;100565.94;10332401;28;20058;-66
2023/09/26 18:32:42;;;;;;;15.98;8.13;;;;;;;22.75;52.76;100552.03;10342136;28;20172;-67
2023/09/26 18:37:44;;;;;;;8.75;5.53;;;;;;;22.67;53.52;100553.00;10344082;28;20647;-66
2023/09/26 18:42:46;;;;;;;6.93;4.75;;;;;;;22.52;54.95;100555.81;10347635;28;20116;-68
2023/09/26 18:47:48;;;;;;;4.40;3.60;;;;;;;22.52;54.53;100572.09;10349089;28;20075;-67
2023/09/26 18:52:49;;;;;;;6.40;3.95;;;;;;;22.39;54.69;100571.94;10335762;28;20049;-66
2023/09/26 18:57:51;;;;;;;4.60;3.78;;;;;;;22.28;55.17;100572.41;10331499;28;20520;-67
2023/09/26 19:02:52;;;;;;;4.28;3.42;;;;;;;22.25;54.81;100574.50;10350728;28;20057;-67
2023/09/26 19:07:55;;;;;;;3.35;2.90;;;;;;;22.20;55.20;100579.66;10354418;28;20246;-68
2023/09/26 19:12:59;;;;;;;3.83;2.97;;;;;;;22.05;55.96;100559.88;10354978;28;20577;-68
2023/09/26 19:18:01;;;;;;;3.53;3.15;;;;;;;22.09;55.89;100579.31;10353869;28;20057;-68
2023/09/26 19:23:02;;;;;;;4.45;3.33;;;;;;;21.99;55.74;100577.75;10354183;28;20144;-67
2023/09/26 19:28:07;;;;;;;3.50;2.90;;;;;;;21.84;55.92;100564.25;10337274;28;20049;-67
2023/09/26 19:33:08;;;;;;;4.75;3.35;;;;;;;21.87;55.90;100590.97;10348230;28;20054;-68
2023/09/26 19:38:11;;;;;;;5.25;4.30;;;;;;;21.83;56.21;100575.28;10351580;28;20076;-67
2023/09/26 19:43:13;;;;;;;6.17;4.57;;;;;;;21.75;56.64;100591.63;10353053;28;20083;-67
2023/09/26 19:48:14;;;;;;;5.65;5.15;;;;;;;21.69;57.32;100579.66;10350081;28;20300;-68
2023/09/26 19:53:16;;;;;;;5.70;4.55;;;;;;;21.64;57.53;100580.22;10337163;28;20100;-67
2023/09/26 19:58:17;;;;;;;5.78;4.72;;;;;;;21.58;57.35;100581.00;10353622;28;20054;-67
2023/09/26 20:03:19;;;;;;;5.00;4.28;;;;;;;21.53;57.35;100584.25;10349029;28;20440;-67
2023/09/26 20:08:20;;;;;;;5.25;4.10;;;;;;;21.48;57.32;100581.25;10338642;28;20068;-67
2023/09/26 20:13:22;;;;;;;5.53;4.35;;;;;;;21.39;57.60;100585.06;10352686;28;20045;-65
2023/09/26 20:18:23;;;;;;;5.72;4.50;;;;;;;21.32;58.28;100576.03;10338145;28;20140;-66
2023/09/26 20:23:25;;;;;;;7.03;5.35;;;;;;;21.29;59.32;100579.09;10368807;28;20053;-66
2023/09/26 20:28:26;;;;;;;5.85;4.95;;;;;;;21.25;59.08;100591.31;10359670;28;20053;-68
2023/09/26 20:33:28;;;;;;;5.32;4.82;;;;;;;21.19;59.45;100593.72;10358420;28;20388;-67
2023/09/26 20:38:29;;;;;;;6.85;5.10;;;;;;;21.17;60.07;100612.03;10356860;28;20669;-67
2023/09/26 20:43:32;;;;;;;6.55;5.25;;;;;;;21.13;60.87;100605.31;10340806;28;20057;-68
2023/09/26 20:48:33;;;;;;;5.65;5.13;;;;;;;21.04;60.87;100606.41;10341455;28;20727;-67
2023/09/26 20:53:35;;;;;;;6.03;5.20;;;;;;;21.00;61.86;100605.94;10351427;28;20183;-67
2023/09/26 20:58:36;;;;;;;5.38;4.88;;;;;;;20.76;61.99;100579.97;10356150;28;20057;-67
2023/09/26 21:03:38;;;;;;;5.60;5.07;;;;;;;20.86;62.17;100611.31;10356323;28;20053;-65
2023/09/26 21:08:40;;;;;;;6.75;5.38;;;;;;;20.77;62.88;100595.16;10357632;28;20092;-67
2023/09/26 21:13:41;;;;;;;5.93;5.30;;;;;;;20.64;63.47;100582.22;10360999;28;20050;-65
2023/09/26 21:18:45;;;;;;;5.68;5.15;;;;;;;20.67;63.27;100589.13;10402797;28;20060;-68
2023/09/26 21:23:48;;;;;;;;;;;;;;;20.59;65.17;100592.72;10360566;28;20052;-67
2023/09/26 21:28:50;;;;;;;6.40;4.60;;;;;;;20.54;65.13;100594.31;10354879;28;21792;-65
2023/09/26 21:33:53;;;;;;;5.50;4.95;;;;;;;20.34;65.54;100564.19;10349442;28;20057;-65
2023/09/26 21:38:54;;;;;;;5.32;4.93;;;;;;;20.44;65.47;100589.97;10350760;28;20077;-68
2023/09/26 21:43:56;;;;;;;6.85;4.38;;;;;;;20.41;66.53;100589.50;10395038;28;20045;-67
2023/09/26 21:48:57;;;;;;;6.15;5.60;;;;;;;20.34;66.19;100581.25;10374862;28;20065;-64
2023/09/26 21:53:59;;;;;;;6.82;5.20;;;;;;;20.29;66.45;100586.34;10358856;28;20045;-64
2023/09/26 21:59:00;;;;;;;6.10;5.50;;;;;;;20.24;66.35;100588.75;10348468;28;20076;-65
2023/09/26 22:04:02;;;;;;;6.15;5.38;;;;;;;20.16;66.85;100581.53;10350007;28;20065;-64
2023/09/26 22:09:04;;;;;;;4.95;4.55;;;;;;;20.12;66.97;100575.66;10347381;28;20051;-64
2023/09/26 22:14:05;;;;;;;5.28;4.82;;;;;;;20.06;67.49;100565.56;10330591;28;20053;-65
2023/09/26 22:19:09;;;;;;;4.43;4.07;;;;;;;19.99;67.93;100571.84;10343053;28;20203;-65
2023/09/26 22:24:12;;;;;;;6.25;5.43;;;;;;;20.00;67.81;100579.78;10345776;28;20101;-65
2023/09/26 22:29:13;;;;;;;5.38;4.88;;;;;;;19.88;68.86;100573.09;10334004;28;20083;-65
2023/09/26 22:34:15;;;;;;;5.13;4.50;;;;;;;19.81;69.41;100567.53;10345878;28;20073;-65
2023/09/26 22:39:17;;;;;;;5.22;4.40;;;;;;;19.89;69.46;100578.31;10355990;28;20054;-66
2023/09/26 22:44:18;;;;;;;4.70;4.30;;;;;;;19.86;69.56;100564.31;10357578;28;20124;-66
2023/09/26 22:49:20;;;;;;;6.20;5.00;;;;;;;19.83;69.79;100561.97;10338327;28;20720;-66
2023/09/26 22:54:22;;;;;;;5.28;4.80;;;;;;;19.72;70.32;100546.97;10355675;28;20123;-64
2023/09/26 22:59:24;;;;;;;6.32;5.60;;;;;;;19.58;70.83;100525.09;10355935;28;20080;-65
2023/09/26 23:04:25;;;;;;;6.72;5.38;;;;;;;19.66;70.59;100545.81;10352855;28;20121;-65
2023/09/26 23:09:27;;;;;;;6.10;5.50;;;;;;;19.61;71.08;100546.34;10355889;28;20053;-65
2023/09/26 23:14:30;;;;;;;6.63;6.00;;;;;;;19.61;70.91;100564.41;10355297;28;20109;-65